»·PEaware :: N226AN KVNY-KSNA

N226AN :: KVNY-KSNA

FLIGHT INFORMATION

Flight Status: Arrived
Operator: Privately registered:
United States
More flights under this callsign
Pilot: Roberto A. (10419)
Aircraft: CESSNA 172 SKYHAWK
(C172)
More flights by this aircraft type
Origin: KVNY Van Nuys
United States
Destination: KSNA John Wayne-Orange Co
United States
More flights between these airports :: More routes between these airports
Route: +COASTAL
File this flight plan on PilotEdge
Remarks: CAT10
Altitude:
(Current/Filed)
5,500ft
Speed:
(Current/Filed)
0kts
Departed: 14-Apr-19 10:50 AM
Arrived: 14-Apr-19 11:27 AM
Distance/Time
Traveled:
45nm/0:37
Distance/Time
To Go:
Arrived

Flight Plot

Page will automatically refresh every two minutes.

Flight plan parsing failed; only flown route is shown


Map Options




Map Legend


Flown Route
Filed Route
Departure Airport
Arrival Airport
Navaid (VOR, NDB)
Fix

Horizontal Profiles

Position Reports

Time Latitude Longitude Heading Altitude Ground
Speed
14-Apr-19 10:38 34.199163 -118.490600 173 806ft 0kts
14-Apr-19 10:39 34.199163 -118.490600 173 806ft 0kts
14-Apr-19 10:40 34.199163 -118.490600 173 806ft 0kts
14-Apr-19 10:41 34.199508 -118.490405 7 806ft 11kts
14-Apr-19 10:42 34.203651 -118.490950 354 806ft 14kts
14-Apr-19 10:43 34.209432 -118.491511 356 806ft 25kts
14-Apr-19 10:44 34.215378 -118.492166 352 806ft 8kts
14-Apr-19 10:45 34.217751 -118.492292 354 806ft 14kts
14-Apr-19 10:46 34.218641 -118.492262 40 806ft 0kts
14-Apr-19 10:47 34.218446 -118.491219 163 806ft 12kts
14-Apr-19 10:48 34.217828 -118.491106 165 806ft 0kts
14-Apr-19 10:49 34.201372 -118.489392 175 1088ft 86kts
14-Apr-19 10:50 34.179569 -118.496990 223 1759ft 85kts
14-Apr-19 10:51 34.162843 -118.516757 227 2367ft 84kts
14-Apr-19 10:52 34.150808 -118.540341 255 3055ft 82kts
14-Apr-19 10:53 34.145810 -118.567124 258 3712ft 81kts
14-Apr-19 10:54 34.145970 -118.593470 292 4379ft 74kts
14-Apr-19 10:55 34.158988 -118.586812 81 4998ft 73kts
14-Apr-19 10:56 34.161939 -118.562015 82 5497ft 75kts
14-Apr-19 10:57 34.146140 -118.546591 223 5502ft 110kts
14-Apr-19 10:58 34.128667 -118.564576 167 5499ft 81kts
14-Apr-19 10:59 34.108501 -118.543821 153 5505ft 103kts
14-Apr-19 11:00 34.085816 -118.519618 125 5503ft 113kts
14-Apr-19 11:01 34.066503 -118.490575 143 5503ft 113kts
14-Apr-19 11:02 34.039850 -118.473139 183 5500ft 107kts
14-Apr-19 11:03 34.011150 -118.474454 161 5503ft 110kts
14-Apr-19 11:04 33.983958 -118.455562 160 5502ft 111kts
14-Apr-19 11:05 33.955461 -118.442743 165 5503ft 110kts
14-Apr-19 11:06 33.928108 -118.427696 141 5503ft 113kts
14-Apr-19 11:07 33.908362 -118.404828 140 5503ft 114kts
14-Apr-19 11:08 33.887010 -118.379981 140 5503ft 114kts
14-Apr-19 11:09 33.865419 -118.355030 140 5503ft 113kts
14-Apr-19 11:10 33.842935 -118.329744 143 5503ft 113kts
14-Apr-19 11:11 33.819359 -118.305237 143 5503ft 113kts
14-Apr-19 11:12 33.795515 -118.280590 143 5503ft 113kts
14-Apr-19 11:13 33.771495 -118.255833 143 5503ft 113kts
14-Apr-19 11:14 33.751380 -118.226412 120 5503ft 116kts
14-Apr-19 11:15 33.736545 -118.191523 109 5503ft 116kts
14-Apr-19 11:16 33.730799 -118.152697 96 5503ft 117kts
14-Apr-19 11:17 33.728524 -118.114044 92 5399ft 114kts
14-Apr-19 11:18 33.728253 -118.075347 93 5036ft 117kts
14-Apr-19 11:19 33.726832 -118.036830 92 4181ft 119kts
14-Apr-19 11:20 33.724939 -117.997364 94 2956ft 113kts
14-Apr-19 11:21 33.723377 -117.963456 94 2433ft 104kts
14-Apr-19 11:22 33.724682 -117.932375 83 2200ft 105kts
14-Apr-19 11:23 33.720793 -117.898088 109 1763ft 104kts
14-Apr-19 11:24 33.707726 -117.869638 130 1093ft 91kts
14-Apr-19 11:25 33.686811 -117.861769 207 225ft 91kts
14-Apr-19 11:26 33.673685 -117.870105 208 60ft 8kts
14-Apr-19 11:27 33.672224 -117.871663 260 60ft 0kts
14-Apr-19 11:28 33.671945 -117.873377 208 60ft 0kts
14-Apr-19 11:29 33.671945 -117.873377 208 60ft 0kts
14-Apr-19 11:30 33.671945 -117.873377 208 60ft 0kts
14-Apr-19 11:31 33.671945 -117.873377 208 60ft 0kts
14-Apr-19 11:32 33.671945 -117.873377 208 60ft 0kts
14-Apr-19 11:33 33.671945 -117.873377 208 60ft 0kts
14-Apr-19 11:34 33.671945 -117.873377 208 60ft 0kts
14-Apr-19 11:35 33.671945 -117.873377 208 60ft 0kts
14-Apr-19 11:36 33.671945 -117.873377 208 60ft 0kts
14-Apr-19 11:37 33.671945 -117.873377 208 60ft 0kts
14-Apr-19 11:38 33.671945 -117.873377 208 60ft 0kts
14-Apr-19 11:39 33.671945 -117.873377 208 60ft 0kts
14-Apr-19 11:40 33.671945 -117.873377 208 60ft 0kts

Navigation Log

Ident Type
Flight plan parsing failed, navigation log unavailable